sensor_id;sensor_type;location;lat;lon;timestamp;P1;durP1;ratioP1;P2;durP2;ratioP2
46745;SDS011;32493;50.514;9.678;2023-03-02T00:00:45;23.40;;;11.52;;
46745;SDS011;32493;50.514;9.678;2023-03-02T00:02:51;23.63;;;11.75;;
46745;SDS011;32493;50.514;9.678;2023-03-02T00:04:59;26.73;;;11.25;;
46745;SDS011;32493;50.514;9.678;2023-03-02T00:07:07;28.13;;;12.07;;
46745;SDS011;32493;50.514;9.678;2023-03-02T00:09:19;26.75;;;11.93;;
46745;SDS011;32493;50.514;9.678;2023-03-02T00:11:24;23.80;;;10.95;;
46745;SDS011;32493;50.514;9.678;2023-03-02T00:13:29;26.42;;;11.85;;
46745;SDS011;32493;50.514;9.678;2023-03-02T00:15:37;23.48;;;11.88;;
46745;SDS011;32493;50.514;9.678;2023-03-02T00:17:42;26.90;;;12.20;;
46745;SDS011;32493;50.514;9.678;2023-03-02T00:19:47;25.58;;;12.20;;
46745;SDS011;32493;50.514;9.678;2023-03-02T00:21:56;24.60;;;12.10;;
46745;SDS011;32493;50.514;9.678;2023-03-02T00:26:06;25.13;;;11.25;;
46745;SDS011;32493;50.514;9.678;2023-03-02T00:28:12;24.90;;;11.25;;
46745;SDS011;32493;50.514;9.678;2023-03-02T00:30:18;26.02;;;12.73;;
46745;SDS011;32493;50.514;9.678;2023-03-02T00:32:23;25.00;;;11.65;;
46745;SDS011;32493;50.514;9.678;2023-03-02T00:34:30;25.17;;;12.25;;
46745;SDS011;32493;50.514;9.678;2023-03-02T00:36:35;26.00;;;11.80;;
46745;SDS011;32493;50.514;9.678;2023-03-02T00:38:44;24.33;;;11.80;;
46745;SDS011;32493;50.514;9.678;2023-03-02T00:40:52;27.42;;;12.70;;
46745;SDS011;32493;50.514;9.678;2023-03-02T00:43:00;23.27;;;12.07;;
46745;SDS011;32493;50.514;9.678;2023-03-02T00:45:05;27.55;;;12.50;;
46745;SDS011;32493;50.514;9.678;2023-03-02T00:49:20;23.73;;;11.43;;
46745;SDS011;32493;50.514;9.678;2023-03-02T00:51:28;26.48;;;11.98;;
46745;SDS011;32493;50.514;9.678;2023-03-02T00:53:34;25.17;;;12.20;;
46745;SDS011;32493;50.514;9.678;2023-03-02T00:55:50;28.50;;;12.32;;
46745;SDS011;32493;50.514;9.678;2023-03-02T01:00:05;27.67;;;12.25;;
46745;SDS011;32493;50.514;9.678;2023-03-02T01:02:14;26.90;;;12.18;;
46745;SDS011;32493;50.514;9.678;2023-03-02T01:04:23;22.92;;;10.50;;
46745;SDS011;32493;50.514;9.678;2023-03-02T01:06:31;26.30;;;12.57;;
46745;SDS011;32493;50.514;9.678;2023-03-02T01:08:36;30.23;;;12.57;;
46745;SDS011;32493;50.514;9.678;2023-03-02T01:10:43;27.58;;;12.18;;
46745;SDS011;32493;50.514;9.678;2023-03-02T01:12:49;26.95;;;12.07;;
46745;SDS011;32493;50.514;9.678;2023-03-02T01:14:56;25.73;;;11.73;;
46745;SDS011;32493;50.514;9.678;2023-03-02T01:17:00;29.30;;;12.45;;
46745;SDS011;32493;50.514;9.678;2023-03-02T01:19:10;28.08;;;12.55;;
46745;SDS011;32493;50.514;9.678;2023-03-02T01:21:15;27.08;;;12.38;;
46745;SDS011;32493;50.514;9.678;2023-03-02T01:23:20;29.70;;;12.80;;
46745;SDS011;32493;50.514;9.678;2023-03-02T01:25:26;29.75;;;11.65;;
46745;SDS011;32493;50.514;9.678;2023-03-02T01:27:33;25.38;;;11.60;;
46745;SDS011;32493;50.514;9.678;2023-03-02T01:29:40;27.92;;;11.90;;
46745;SDS011;32493;50.514;9.678;2023-03-02T01:31:46;25.15;;;12.20;;
46745;SDS011;32493;50.514;9.678;2023-03-02T01:33:51;28.35;;;10.93;;
46745;SDS011;32493;50.514;9.678;2023-03-02T01:35:56;30.20;;;12.45;;
46745;SDS011;32493;50.514;9.678;2023-03-02T01:38:02;32.35;;;12.80;;
46745;SDS011;32493;50.514;9.678;2023-03-02T01:40:08;28.65;;;11.82;;
46745;SDS011;32493;50.514;9.678;2023-03-02T01:42:17;27.45;;;12.07;;
46745;SDS011;32493;50.514;9.678;2023-03-02T01:44:38;31.38;;;12.38;;
46745;SDS011;32493;50.514;9.678;2023-03-02T01:46:46;29.02;;;11.95;;
46745;SDS011;32493;50.514;9.678;2023-03-02T01:48:53;29.67;;;12.07;;
46745;SDS011;32493;50.514;9.678;2023-03-02T01:51:29;25.00;;;11.55;;
46745;SDS011;32493;50.514;9.678;2023-03-02T01:53:40;26.23;;;11.90;;
46745;SDS011;32493;50.514;9.678;2023-03-02T01:55:49;27.65;;;12.57;;
46745;SDS011;32493;50.514;9.678;2023-03-02T01:57:55;26.92;;;11.73;;
46745;SDS011;32493;50.514;9.678;2023-03-02T02:00:05;26.73;;;12.70;;
46745;SDS011;32493;50.514;9.678;2023-03-02T02:02:13;27.80;;;11.68;;
46745;SDS011;32493;50.514;9.678;2023-03-02T02:04:19;24.38;;;11.98;;
46745;SDS011;32493;50.514;9.678;2023-03-02T02:06:27;26.58;;;12.88;;
46745;SDS011;32493;50.514;9.678;2023-03-02T02:08:43;25.73;;;11.48;;
46745;SDS011;32493;50.514;9.678;2023-03-02T02:10:48;26.58;;;12.70;;
46745;SDS011;32493;50.514;9.678;2023-03-02T02:12:54;24.83;;;11.80;;
46745;SDS011;32493;50.514;9.678;2023-03-02T02:14:59;27.70;;;11.77;;
46745;SDS011;32493;50.514;9.678;2023-03-02T02:17:07;26.88;;;12.38;;
46745;SDS011;32493;50.514;9.678;2023-03-02T02:19:14;26.40;;;11.57;;
46745;SDS011;32493;50.514;9.678;2023-03-02T02:21:35;25.95;;;11.95;;
46745;SDS011;32493;50.514;9.678;2023-03-02T02:23:41;24.67;;;11.93;;
46745;SDS011;32493;50.514;9.678;2023-03-02T02:26:18;28.77;;;11.95;;
46745;SDS011;32493;50.514;9.678;2023-03-02T02:28:27;31.58;;;13.40;;
46745;SDS011;32493;50.514;9.678;2023-03-02T02:30:39;25.90;;;11.52;;
46745;SDS011;32493;50.514;9.678;2023-03-02T02:32:49;26.85;;;12.05;;
46745;SDS011;32493;50.514;9.678;2023-03-02T02:34:58;28.38;;;12.48;;
46745;SDS011;32493;50.514;9.678;2023-03-02T02:37:11;26.80;;;12.45;;
46745;SDS011;32493;50.514;9.678;2023-03-02T02:39:26;26.35;;;11.90;;
46745;SDS011;32493;50.514;9.678;2023-03-02T02:41:39;23.88;;;11.82;;
46745;SDS011;32493;50.514;9.678;2023-03-02T02:43:45;24.65;;;11.55;;
46745;SDS011;32493;50.514;9.678;2023-03-02T02:45:52;22.95;;;12.05;;
46745;SDS011;32493;50.514;9.678;2023-03-02T02:48:00;25.00;;;11.93;;
46745;SDS011;32493;50.514;9.678;2023-03-02T02:50:08;25.08;;;11.75;;
46745;SDS011;32493;50.514;9.678;2023-03-02T02:52:23;24.30;;;11.50;;
46745;SDS011;32493;50.514;9.678;2023-03-02T02:54:32;31.88;;;12.82;;
46745;SDS011;32493;50.514;9.678;2023-03-02T02:56:43;25.85;;;11.98;;
46745;SDS011;32493;50.514;9.678;2023-03-02T02:58:50;25.77;;;12.18;;
46745;SDS011;32493;50.514;9.678;2023-03-02T03:00:58;22.48;;;11.38;;
46745;SDS011;32493;50.514;9.678;2023-03-02T03:03:24;24.30;;;11.57;;
46745;SDS011;32493;50.514;9.678;2023-03-02T03:05:39;23.15;;;11.48;;
46745;SDS011;32493;50.514;9.678;2023-03-02T03:07:44;23.05;;;12.00;;
46745;SDS011;32493;50.514;9.678;2023-03-02T03:09:52;28.45;;;12.80;;
46745;SDS011;32493;50.514;9.678;2023-03-02T03:12:10;27.83;;;12.65;;
46745;SDS011;32493;50.514;9.678;2023-03-02T03:14:28;26.83;;;11.52;;
46745;SDS011;32493;50.514;9.678;2023-03-02T03:16:40;26.30;;;12.20;;
46745;SDS011;32493;50.514;9.678;2023-03-02T03:18:49;25.63;;;12.10;;
46745;SDS011;32493;50.514;9.678;2023-03-02T03:20:56;23.50;;;11.37;;
46745;SDS011;32493;50.514;9.678;2023-03-02T03:23:01;30.40;;;12.43;;
46745;SDS011;32493;50.514;9.678;2023-03-02T03:25:07;25.33;;;12.48;;
46745;SDS011;32493;50.514;9.678;2023-03-02T03:27:21;24.45;;;11.15;;
46745;SDS011;32493;50.514;9.678;2023-03-02T03:29:27;27.77;;;12.75;;
46745;SDS011;32493;50.514;9.678;2023-03-02T03:33:41;25.52;;;11.63;;
46745;SDS011;32493;50.514;9.678;2023-03-02T03:35:47;26.45;;;11.40;;
46745;SDS011;32493;50.514;9.678;2023-03-02T03:37:55;30.33;;;12.07;;
46745;SDS011;32493;50.514;9.678;2023-03-02T03:40:02;25.00;;;11.93;;
46745;SDS011;32493;50.514;9.678;2023-03-02T03:42:15;26.85;;;12.88;;
46745;SDS011;32493;50.514;9.678;2023-03-02T03:44:23;33.65;;;12.02;;
46745;SDS011;32493;50.514;9.678;2023-03-02T03:46:29;27.45;;;12.15;;
46745;SDS011;32493;50.514;9.678;2023-03-02T03:48:36;22.63;;;11.55;;
46745;SDS011;32493;50.514;9.678;2023-03-02T03:50:43;25.33;;;12.48;;
46745;SDS011;32493;50.514;9.678;2023-03-02T03:52:48;27.25;;;11.85;;
46745;SDS011;32493;50.514;9.678;2023-03-02T03:54:59;27.00;;;11.70;;
46745;SDS011;32493;50.514;9.678;2023-03-02T03:57:05;25.77;;;11.95;;
46745;SDS011;32493;50.514;9.678;2023-03-02T03:59:14;20.80;;;10.65;;
46745;SDS011;32493;50.514;9.678;2023-03-02T04:01:28;27.75;;;12.07;;
46745;SDS011;32493;50.514;9.678;2023-03-02T04:03:35;24.40;;;10.98;;
46745;SDS011;32493;50.514;9.678;2023-03-02T04:05:40;28.35;;;11.98;;
46745;SDS011;32493;50.514;9.678;2023-03-02T04:07:45;26.85;;;11.63;;
46745;SDS011;32493;50.514;9.678;2023-03-02T04:09:51;26.33;;;11.68;;
46745;SDS011;32493;50.514;9.678;2023-03-02T04:12:08;28.67;;;12.25;;
46745;SDS011;32493;50.514;9.678;2023-03-02T04:14:20;27.10;;;11.32;;
46745;SDS011;32493;50.514;9.678;2023-03-02T04:16:32;25.73;;;10.75;;
46745;SDS011;32493;50.514;9.678;2023-03-02T04:18:38;23.33;;;10.95;;
46745;SDS011;32493;50.514;9.678;2023-03-02T04:20:46;23.35;;;11.45;;
46745;SDS011;32493;50.514;9.678;2023-03-02T04:22:51;26.88;;;11.73;;
46745;SDS011;32493;50.514;9.678;2023-03-02T04:24:59;27.02;;;11.55;;
46745;SDS011;32493;50.514;9.678;2023-03-02T04:27:08;25.33;;;11.43;;
46745;SDS011;32493;50.514;9.678;2023-03-02T04:29:16;22.08;;;11.20;;
46745;SDS011;32493;50.514;9.678;2023-03-02T04:31:26;26.55;;;11.32;;
46745;SDS011;32493;50.514;9.678;2023-03-02T04:33:35;24.85;;;12.02;;
46745;SDS011;32493;50.514;9.678;2023-03-02T04:35:41;24.38;;;11.77;;
46745;SDS011;32493;50.514;9.678;2023-03-02T04:37:46;24.58;;;10.77;;
46745;SDS011;32493;50.514;9.678;2023-03-02T04:39:52;26.98;;;11.95;;
46745;SDS011;32493;50.514;9.678;2023-03-02T04:41:57;22.83;;;10.55;;
46745;SDS011;32493;50.514;9.678;2023-03-02T04:44:02;23.63;;;10.30;;
46745;SDS011;32493;50.514;9.678;2023-03-02T04:46:08;24.67;;;11.02;;
46745;SDS011;32493;50.514;9.678;2023-03-02T04:48:17;30.08;;;11.32;;
46745;SDS011;32493;50.514;9.678;2023-03-02T04:50:25;25.88;;;11.50;;
46745;SDS011;32493;50.514;9.678;2023-03-02T04:52:31;25.13;;;10.85;;
46745;SDS011;32493;50.514;9.678;2023-03-02T04:54:36;26.52;;;11.55;;
46745;SDS011;32493;50.514;9.678;2023-03-02T04:56:41;25.45;;;11.05;;
46745;SDS011;32493;50.514;9.678;2023-03-02T04:58:49;27.02;;;11.90;;
46745;SDS011;32493;50.514;9.678;2023-03-02T05:00:54;22.83;;;11.43;;
46745;SDS011;32493;50.514;9.678;2023-03-02T05:03:04;26.70;;;11.02;;
46745;SDS011;32493;50.514;9.678;2023-03-02T05:05:16;22.00;;;10.88;;
46745;SDS011;32493;50.514;9.678;2023-03-02T05:07:28;22.85;;;11.50;;
46745;SDS011;32493;50.514;9.678;2023-03-02T05:09:34;21.42;;;9.88;;
46745;SDS011;32493;50.514;9.678;2023-03-02T05:11:40;27.52;;;10.18;;
46745;SDS011;32493;50.514;9.678;2023-03-02T05:13:45;22.58;;;10.20;;
46745;SDS011;32493;50.514;9.678;2023-03-02T05:15:53;23.38;;;10.38;;
46745;SDS011;32493;50.514;9.678;2023-03-02T05:17:59;22.23;;;10.95;;
46745;SDS011;32493;50.514;9.678;2023-03-02T05:20:10;23.58;;;10.50;;
46745;SDS011;32493;50.514;9.678;2023-03-02T05:22:16;22.77;;;10.52;;
46745;SDS011;32493;50.514;9.678;2023-03-02T05:24:24;22.85;;;9.73;;
46745;SDS011;32493;50.514;9.678;2023-03-02T05:26:29;24.65;;;11.30;;
46745;SDS011;32493;50.514;9.678;2023-03-02T05:28:41;25.35;;;9.80;;
46745;SDS011;32493;50.514;9.678;2023-03-02T05:30:47;20.98;;;10.13;;
46745;SDS011;32493;50.514;9.678;2023-03-02T05:32:52;24.08;;;9.88;;
46745;SDS011;32493;50.514;9.678;2023-03-02T05:34:57;21.42;;;10.20;;
46745;SDS011;32493;50.514;9.678;2023-03-02T05:37:02;18.48;;;9.70;;
46745;SDS011;32493;50.514;9.678;2023-03-02T05:39:08;21.63;;;10.20;;
46745;SDS011;32493;50.514;9.678;2023-03-02T05:41:17;25.55;;;10.75;;
46745;SDS011;32493;50.514;9.678;2023-03-02T05:43:28;26.00;;;11.00;;
46745;SDS011;32493;50.514;9.678;2023-03-02T05:45:34;25.83;;;10.68;;
46745;SDS011;32493;50.514;9.678;2023-03-02T05:49:46;21.95;;;9.63;;
46745;SDS011;32493;50.514;9.678;2023-03-02T05:51:55;25.90;;;9.98;;
46745;SDS011;32493;50.514;9.678;2023-03-02T05:54:00;20.65;;;10.35;;
46745;SDS011;32493;50.514;9.678;2023-03-02T05:56:06;23.90;;;10.25;;
46745;SDS011;32493;50.514;9.678;2023-03-02T05:58:15;24.50;;;9.88;;
46745;SDS011;32493;50.514;9.678;2023-03-02T06:00:26;24.50;;;9.80;;
46745;SDS011;32493;50.514;9.678;2023-03-02T06:02:31;25.75;;;11.07;;
46745;SDS011;32493;50.514;9.678;2023-03-02T06:04:40;21.27;;;9.88;;
46745;SDS011;32493;50.514;9.678;2023-03-02T06:06:46;23.38;;;9.15;;
46745;SDS011;32493;50.514;9.678;2023-03-02T06:08:51;21.27;;;9.80;;
46745;SDS011;32493;50.514;9.678;2023-03-02T06:10:59;20.58;;;9.10;;
46745;SDS011;32493;50.514;9.678;2023-03-02T06:13:06;21.77;;;9.95;;
46745;SDS011;32493;50.514;9.678;2023-03-02T06:15:16;22.48;;;9.98;;
46745;SDS011;32493;50.514;9.678;2023-03-02T06:17:25;19.20;;;9.32;;
46745;SDS011;32493;50.514;9.678;2023-03-02T06:19:33;23.15;;;9.18;;
46745;SDS011;32493;50.514;9.678;2023-03-02T06:21:38;22.35;;;11.13;;
46745;SDS011;32493;50.514;9.678;2023-03-02T06:23:44;20.77;;;9.48;;
46745;SDS011;32493;50.514;9.678;2023-03-02T06:25:49;21.55;;;9.50;;
46745;SDS011;32493;50.514;9.678;2023-03-02T06:27:55;21.58;;;10.57;;
46745;SDS011;32493;50.514;9.678;2023-03-02T06:30:01;21.85;;;10.07;;
46745;SDS011;32493;50.514;9.678;2023-03-02T06:32:11;22.58;;;10.18;;
46745;SDS011;32493;50.514;9.678;2023-03-02T06:36:24;20.50;;;9.68;;
46745;SDS011;32493;50.514;9.678;2023-03-02T06:38:30;23.90;;;10.25;;
46745;SDS011;32493;50.514;9.678;2023-03-02T06:40:35;22.35;;;10.50;;
46745;SDS011;32493;50.514;9.678;2023-03-02T06:44:52;26.25;;;10.48;;
46745;SDS011;32493;50.514;9.678;2023-03-02T06:46:58;20.35;;;10.52;;
46745;SDS011;32493;50.514;9.678;2023-03-02T06:49:07;23.52;;;10.57;;
46745;SDS011;32493;50.514;9.678;2023-03-02T06:51:14;23.73;;;10.65;;
46745;SDS011;32493;50.514;9.678;2023-03-02T06:53:20;24.42;;;10.60;;
46745;SDS011;32493;50.514;9.678;2023-03-02T06:55:25;23.45;;;11.07;;
46745;SDS011;32493;50.514;9.678;2023-03-02T06:57:32;20.85;;;10.35;;
46745;SDS011;32493;50.514;9.678;2023-03-02T06:59:38;21.25;;;10.77;;
46745;SDS011;32493;50.514;9.678;2023-03-02T07:01:44;23.52;;;10.95;;
46745;SDS011;32493;50.514;9.678;2023-03-02T07:03:50;21.70;;;9.98;;
46745;SDS011;32493;50.514;9.678;2023-03-02T07:05:59;27.35;;;11.27;;
46745;SDS011;32493;50.514;9.678;2023-03-02T07:08:04;24.50;;;10.98;;
46745;SDS011;32493;50.514;9.678;2023-03-02T07:10:10;22.85;;;10.60;;
46745;SDS011;32493;50.514;9.678;2023-03-02T07:12:16;25.40;;;10.85;;
46745;SDS011;32493;50.514;9.678;2023-03-02T07:14:21;25.88;;;11.55;;
46745;SDS011;32493;50.514;9.678;2023-03-02T07:16:26;23.67;;;10.98;;
46745;SDS011;32493;50.514;9.678;2023-03-02T07:18:32;25.73;;;10.68;;
46745;SDS011;32493;50.514;9.678;2023-03-02T07:20:38;22.47;;;10.63;;
46745;SDS011;32493;50.514;9.678;2023-03-02T07:22:48;23.00;;;10.85;;
46745;SDS011;32493;50.514;9.678;2023-03-02T07:26:59;25.85;;;11.13;;
46745;SDS011;32493;50.514;9.678;2023-03-02T07:29:04;33.05;;;11.82;;
46745;SDS011;32493;50.514;9.678;2023-03-02T07:31:10;26.08;;;11.60;;
46745;SDS011;32493;50.514;9.678;2023-03-02T07:33:19;26.15;;;12.18;;
46745;SDS011;32493;50.514;9.678;2023-03-02T07:35:27;23.73;;;10.93;;
46745;SDS011;32493;50.514;9.678;2023-03-02T07:37:33;21.88;;;10.45;;
46745;SDS011;32493;50.514;9.678;2023-03-02T07:39:43;21.42;;;10.18;;
46745;SDS011;32493;50.514;9.678;2023-03-02T07:41:50;25.88;;;11.70;;
46745;SDS011;32493;50.514;9.678;2023-03-02T07:43:55;25.23;;;10.27;;
46745;SDS011;32493;50.514;9.678;2023-03-02T07:46:00;21.92;;;11.15;;
46745;SDS011;32493;50.514;9.678;2023-03-02T07:48:06;22.48;;;11.18;;
46745;SDS011;32493;50.514;9.678;2023-03-02T07:50:17;24.67;;;10.48;;
46745;SDS011;32493;50.514;9.678;2023-03-02T07:52:22;23.05;;;11.05;;
46745;SDS011;32493;50.514;9.678;2023-03-02T07:54:29;21.92;;;10.77;;
46745;SDS011;32493;50.514;9.678;2023-03-02T07:56:42;24.08;;;9.75;;
46745;SDS011;32493;50.514;9.678;2023-03-02T07:58:49;23.50;;;10.80;;
46745;SDS011;32493;50.514;9.678;2023-03-02T08:00:55;22.30;;;10.48;;
46745;SDS011;32493;50.514;9.678;2023-03-02T08:03:02;21.20;;;10.70;;
46745;SDS011;32493;50.514;9.678;2023-03-02T08:05:08;21.02;;;10.30;;
46745;SDS011;32493;50.514;9.678;2023-03-02T08:07:18;22.38;;;10.70;;
46745;SDS011;32493;50.514;9.678;2023-03-02T08:09:23;24.02;;;11.43;;
46745;SDS011;32493;50.514;9.678;2023-03-02T08:11:29;25.75;;;11.00;;
46745;SDS011;32493;50.514;9.678;2023-03-02T08:13:39;25.35;;;10.93;;
46745;SDS011;32493;50.514;9.678;2023-03-02T08:15:47;22.63;;;11.93;;
46745;SDS011;32493;50.514;9.678;2023-03-02T08:17:52;24.60;;;11.07;;
46745;SDS011;32493;50.514;9.678;2023-03-02T08:19:57;21.23;;;10.95;;
46745;SDS011;32493;50.514;9.678;2023-03-02T08:22:02;25.42;;;10.95;;
46745;SDS011;32493;50.514;9.678;2023-03-02T08:24:08;24.27;;;11.60;;
46745;SDS011;32493;50.514;9.678;2023-03-02T08:26:15;20.85;;;11.52;;
46745;SDS011;32493;50.514;9.678;2023-03-02T08:28:23;21.50;;;10.80;;
46745;SDS011;32493;50.514;9.678;2023-03-02T08:30:30;26.63;;;12.32;;
46745;SDS011;32493;50.514;9.678;2023-03-02T08:32:37;23.73;;;10.98;;
46745;SDS011;32493;50.514;9.678;2023-03-02T08:34:43;24.17;;;11.50;;
46745;SDS011;32493;50.514;9.678;2023-03-02T08:36:51;25.85;;;11.63;;
46745;SDS011;32493;50.514;9.678;2023-03-02T08:39:00;23.48;;;10.93;;
46745;SDS011;32493;50.514;9.678;2023-03-02T08:41:06;24.40;;;10.77;;
46745;SDS011;32493;50.514;9.678;2023-03-02T08:43:15;20.17;;;10.68;;
46745;SDS011;32493;50.514;9.678;2023-03-02T08:45:21;23.92;;;10.88;;
46745;SDS011;32493;50.514;9.678;2023-03-02T08:47:31;24.50;;;11.13;;
46745;SDS011;32493;50.514;9.678;2023-03-02T08:51:43;26.20;;;11.95;;
46745;SDS011;32493;50.514;9.678;2023-03-02T08:53:54;23.90;;;10.93;;
46745;SDS011;32493;50.514;9.678;2023-03-02T08:56:01;26.45;;;12.45;;
46745;SDS011;32493;50.514;9.678;2023-03-02T08:58:08;26.75;;;11.98;;
46745;SDS011;32493;50.514;9.678;2023-03-02T09:00:14;23.85;;;10.45;;
46745;SDS011;32493;50.514;9.678;2023-03-02T09:02:25;23.83;;;11.02;;
46745;SDS011;32493;50.514;9.678;2023-03-02T09:04:32;27.95;;;13.65;;
46745;SDS011;32493;50.514;9.678;2023-03-02T09:08:44;22.52;;;10.68;;
46745;SDS011;32493;50.514;9.678;2023-03-02T09:10:50;24.02;;;12.00;;
46745;SDS011;32493;50.514;9.678;2023-03-02T09:12:56;25.60;;;11.75;;
46745;SDS011;32493;50.514;9.678;2023-03-02T09:15:02;29.60;;;11.57;;
46745;SDS011;32493;50.514;9.678;2023-03-02T09:17:08;22.05;;;10.68;;
46745;SDS011;32493;50.514;9.678;2023-03-02T09:19:18;26.52;;;11.65;;
46745;SDS011;32493;50.514;9.678;2023-03-02T09:21:26;24.27;;;11.13;;
46745;SDS011;32493;50.514;9.678;2023-03-02T09:23:33;19.92;;;10.75;;
46745;SDS011;32493;50.514;9.678;2023-03-02T09:25:41;19.77;;;10.90;;
46745;SDS011;32493;50.514;9.678;2023-03-02T09:27:48;21.85;;;11.27;;
46745;SDS011;32493;50.514;9.678;2023-03-02T09:29:52;22.83;;;11.43;;
46745;SDS011;32493;50.514;9.678;2023-03-02T09:31:57;24.50;;;12.30;;
46745;SDS011;32493;50.514;9.678;2023-03-02T09:34:03;23.52;;;12.68;;
46745;SDS011;32493;50.514;9.678;2023-03-02T09:36:09;29.02;;;14.18;;
46745;SDS011;32493;50.514;9.678;2023-03-02T09:38:21;26.45;;;12.88;;
46745;SDS011;32493;50.514;9.678;2023-03-02T09:40:27;25.67;;;11.75;;
46745;SDS011;32493;50.514;9.678;2023-03-02T09:42:40;24.50;;;11.80;;
46745;SDS011;32493;50.514;9.678;2023-03-02T09:45:12;22.23;;;12.10;;
46745;SDS011;32493;50.514;9.678;2023-03-02T09:47:27;23.67;;;12.93;;
46745;SDS011;32493;50.514;9.678;2023-03-02T09:49:44;23.58;;;11.60;;
46745;SDS011;32493;50.514;9.678;2023-03-02T09:52:06;23.48;;;12.27;;
46745;SDS011;32493;50.514;9.678;2023-03-02T09:54:25;22.73;;;11.45;;
46745;SDS011;32493;50.514;9.678;2023-03-02T09:56:33;25.63;;;10.70;;
46745;SDS011;32493;50.514;9.678;2023-03-02T09:58:41;20.90;;;10.77;;
46745;SDS011;32493;50.514;9.678;2023-03-02T10:00:55;23.55;;;10.70;;
46745;SDS011;32493;50.514;9.678;2023-03-02T10:03:14;22.60;;;11.85;;
46745;SDS011;32493;50.514;9.678;2023-03-02T10:05:45;23.30;;;11.68;;
46745;SDS011;32493;50.514;9.678;2023-03-02T10:08:09;23.40;;;11.48;;
46745;SDS011;32493;50.514;9.678;2023-03-02T10:10:23;23.77;;;10.95;;
46745;SDS011;32493;50.514;9.678;2023-03-02T10:12:47;22.77;;;11.43;;
46745;SDS011;32493;50.514;9.678;2023-03-02T10:15:28;22.65;;;10.45;;
46745;SDS011;32493;50.514;9.678;2023-03-02T10:17:47;22.20;;;11.38;;
46745;SDS011;32493;50.514;9.678;2023-03-02T10:20:04;20.02;;;11.18;;
46745;SDS011;32493;50.514;9.678;2023-03-02T10:22:20;22.38;;;10.95;;
46745;SDS011;32493;50.514;9.678;2023-03-02T10:24:36;22.70;;;11.43;;
46745;SDS011;32493;50.514;9.678;2023-03-02T10:26:50;26.33;;;11.00;;
46745;SDS011;32493;50.514;9.678;2023-03-02T10:29:04;19.00;;;10.93;;
46745;SDS011;32493;50.514;9.678;2023-03-02T10:31:32;21.40;;;11.30;;
46745;SDS011;32493;50.514;9.678;2023-03-02T10:33:39;22.52;;;11.27;;
46745;SDS011;32493;50.514;9.678;2023-03-02T10:35:46;21.05;;;10.70;;
46745;SDS011;32493;50.514;9.678;2023-03-02T10:37:56;19.40;;;10.10;;
46745;SDS011;32493;50.514;9.678;2023-03-02T10:40:10;19.70;;;11.18;;
46745;SDS011;32493;50.514;9.678;2023-03-02T10:42:35;26.08;;;12.00;;
46745;SDS011;32493;50.514;9.678;2023-03-02T10:44:44;21.83;;;11.02;;
46745;SDS011;32493;50.514;9.678;2023-03-02T10:46:54;21.70;;;11.38;;
46745;SDS011;32493;50.514;9.678;2023-03-02T10:48:59;22.85;;;10.93;;
46745;SDS011;32493;50.514;9.678;2023-03-02T10:51:04;19.52;;;11.05;;
46745;SDS011;32493;50.514;9.678;2023-03-02T10:53:16;22.45;;;11.52;;
46745;SDS011;32493;50.514;9.678;2023-03-02T10:55:22;21.35;;;10.50;;
46745;SDS011;32493;50.514;9.678;2023-03-02T10:57:29;21.60;;;10.70;;
46745;SDS011;32493;50.514;9.678;2023-03-02T10:59:43;22.40;;;11.82;;
46745;SDS011;32493;50.514;9.678;2023-03-02T11:01:56;24.80;;;12.05;;
46745;SDS011;32493;50.514;9.678;2023-03-02T11:04:03;18.42;;;9.98;;
46745;SDS011;32493;50.514;9.678;2023-03-02T11:06:17;22.88;;;12.00;;
46745;SDS011;32493;50.514;9.678;2023-03-02T11:08:24;19.38;;;10.85;;
46745;SDS011;32493;50.514;9.678;2023-03-02T11:10:33;21.25;;;10.77;;
46745;SDS011;32493;50.514;9.678;2023-03-02T11:12:44;20.92;;;11.15;;
46745;SDS011;32493;50.514;9.678;2023-03-02T11:14:59;20.80;;;11.23;;
46745;SDS011;32493;50.514;9.678;2023-03-02T11:17:28;21.08;;;11.10;;
46745;SDS011;32493;50.514;9.678;2023-03-02T11:19:36;27.27;;;12.70;;
46745;SDS011;32493;50.514;9.678;2023-03-02T11:21:45;20.33;;;11.20;;
46745;SDS011;32493;50.514;9.678;2023-03-02T11:23:59;22.23;;;12.30;;
46745;SDS011;32493;50.514;9.678;2023-03-02T11:26:14;24.02;;;11.63;;
46745;SDS011;32493;50.514;9.678;2023-03-02T11:28:33;20.58;;;12.40;;
46745;SDS011;32493;50.514;9.678;2023-03-02T11:30:49;22.20;;;12.05;;
46745;SDS011;32493;50.514;9.678;2023-03-02T11:32:57;24.70;;;10.82;;
46745;SDS011;32493;50.514;9.678;2023-03-02T11:35:08;22.30;;;11.38;;
46745;SDS011;32493;50.514;9.678;2023-03-02T11:37:19;22.85;;;11.63;;
46745;SDS011;32493;50.514;9.678;2023-03-02T11:39:28;25.13;;;12.25;;
46745;SDS011;32493;50.514;9.678;2023-03-02T11:41:55;21.88;;;11.60;;
46745;SDS011;32493;50.514;9.678;2023-03-02T11:44:05;25.50;;;11.93;;
46745;SDS011;32493;50.514;9.678;2023-03-02T11:46:18;23.63;;;11.80;;
46745;SDS011;32493;50.514;9.678;2023-03-02T11:48:32;25.67;;;12.95;;
46745;SDS011;32493;50.514;9.678;2023-03-02T11:50:44;24.80;;;12.52;;
46745;SDS011;32493;50.514;9.678;2023-03-02T11:52:58;21.52;;;11.90;;
46745;SDS011;32493;50.514;9.678;2023-03-02T11:55:13;26.90;;;12.50;;
46745;SDS011;32493;50.514;9.678;2023-03-02T11:57:24;21.88;;;12.43;;
46745;SDS011;32493;50.514;9.678;2023-03-02T11:59:37;25.27;;;13.70;;
46745;SDS011;32493;50.514;9.678;2023-03-02T12:01:42;23.77;;;12.07;;
46745;SDS011;32493;50.514;9.678;2023-03-02T12:03:53;23.17;;;13.07;;
46745;SDS011;32493;50.514;9.678;2023-03-02T12:06:24;25.20;;;12.82;;
46745;SDS011;32493;50.514;9.678;2023-03-02T12:08:40;23.90;;;13.25;;
46745;SDS011;32493;50.514;9.678;2023-03-02T12:10:54;21.25;;;12.32;;
46745;SDS011;32493;50.514;9.678;2023-03-02T12:13:12;23.15;;;12.38;;
46745;SDS011;32493;50.514;9.678;2023-03-02T12:15:33;23.88;;;12.05;;
46745;SDS011;32493;50.514;9.678;2023-03-02T12:17:42;23.08;;;13.50;;
46745;SDS011;32493;50.514;9.678;2023-03-02T12:19:48;25.75;;;13.88;;
46745;SDS011;32493;50.514;9.678;2023-03-02T12:21:55;22.05;;;12.52;;
46745;SDS011;32493;50.514;9.678;2023-03-02T12:24:04;25.02;;;13.15;;
46745;SDS011;32493;50.514;9.678;2023-03-02T12:26:28;25.83;;;12.82;;
46745;SDS011;32493;50.514;9.678;2023-03-02T12:28:40;22.23;;;12.95;;
46745;SDS011;32493;50.514;9.678;2023-03-02T12:30:47;23.33;;;13.80;;
46745;SDS011;32493;50.514;9.678;2023-03-02T12:33:13;24.73;;;13.77;;
46745;SDS011;32493;50.514;9.678;2023-03-02T12:35:23;25.50;;;12.88;;
46745;SDS011;32493;50.514;9.678;2023-03-02T12:37:32;24.58;;;13.40;;
46745;SDS011;32493;50.514;9.678;2023-03-02T12:40:08;22.85;;;13.48;;
46745;SDS011;32493;50.514;9.678;2023-03-02T12:42:46;22.95;;;12.90;;
46745;SDS011;32493;50.514;9.678;2023-03-02T12:45:03;29.17;;;13.05;;
46745;SDS011;32493;50.514;9.678;2023-03-02T12:47:26;22.38;;;12.93;;
46745;SDS011;32493;50.514;9.678;2023-03-02T12:49:38;23.90;;;15.10;;
46745;SDS011;32493;50.514;9.678;2023-03-02T12:51:51;24.65;;;15.07;;
46745;SDS011;32493;50.514;9.678;2023-03-02T12:54:02;25.27;;;15.02;;
46745;SDS011;32493;50.514;9.678;2023-03-02T12:56:09;23.40;;;14.43;;
46745;SDS011;32493;50.514;9.678;2023-03-02T12:58:27;23.65;;;14.38;;
46745;SDS011;32493;50.514;9.678;2023-03-02T13:00:33;21.23;;;13.30;;